Terminal Aerodrome Forecast
Issued by NWS Twin Cities, MN

Home | Current Version | Previous Version | Graphics & Text | Print | Product List | Glossary On
Versions: 1 2 3 4 5 6 7 8 9 10 11 12 13 14 15 16 17 18 19 20 21 22 23 24 25 26 27 28
000
FTUS43 KMPX 162000 AAA
TAFMSP
TAF AMD
KMSP 162053Z 1621/1724 04014G22KT 4SM -SN BR OVC025
      TEMPO 1621/1624 1SM -SN BR OVC012
     FM170000 01015G23KT 4SM -SN BR SCT012 OVC025
     FM170200 34014G20KT 4SM -SN BR OVC012
      TEMPO 1702/1706 1SM -SN BR BKN007
     FM170600 34012G20KT P6SM OVC012
     FM171200 34007KT P6SM OVC020
     FM171800 36009KT P6SM SCT020 OVC040=

USA.gov is the U.S. government's official web portal to all federal, state and local government web resources and services.